sensor_id;sensor_type;location;lat;lon;timestamp;P1;durP1;ratioP1;P2;durP2;ratioP2
54502;SDS011;40411;50.090;21.954;2024-02-14T00:02:13;12.77;;;6.03;;
54502;SDS011;40411;50.090;21.954;2024-02-14T00:04:39;13.80;;;6.43;;
54502;SDS011;40411;50.090;21.954;2024-02-14T00:07:05;13.70;;;5.03;;
54502;SDS011;40411;50.090;21.954;2024-02-14T00:09:31;12.27;;;6.07;;
54502;SDS011;40411;50.090;21.954;2024-02-14T00:11:57;12.95;;;5.53;;
54502;SDS011;40411;50.090;21.954;2024-02-14T00:14:23;11.98;;;5.95;;
54502;SDS011;40411;50.090;21.954;2024-02-14T00:16:49;12.55;;;5.28;;
54502;SDS011;40411;50.090;21.954;2024-02-14T00:19:16;8.48;;;4.95;;
54502;SDS011;40411;50.090;21.954;2024-02-14T00:21:42;15.57;;;5.70;;
54502;SDS011;40411;50.090;21.954;2024-02-14T00:24:08;11.88;;;5.35;;
54502;SDS011;40411;50.090;21.954;2024-02-14T00:26:34;14.55;;;5.78;;
54502;SDS011;40411;50.090;21.954;2024-02-14T00:29:01;11.88;;;5.10;;
54502;SDS011;40411;50.090;21.954;2024-02-14T00:31:27;15.90;;;5.85;;
54502;SDS011;40411;50.090;21.954;2024-02-14T00:33:53;10.60;;;5.82;;
54502;SDS011;40411;50.090;21.954;2024-02-14T00:36:19;11.30;;;5.38;;
54502;SDS011;40411;50.090;21.954;2024-02-14T00:38:45;11.52;;;6.00;;
54502;SDS011;40411;50.090;21.954;2024-02-14T00:41:11;10.52;;;4.95;;
54502;SDS011;40411;50.090;21.954;2024-02-14T00:43:37;14.80;;;7.07;;
54502;SDS011;40411;50.090;21.954;2024-02-14T00:46:03;16.67;;;6.13;;
54502;SDS011;40411;50.090;21.954;2024-02-14T00:48:29;12.00;;;5.65;;
54502;SDS011;40411;50.090;21.954;2024-02-14T00:50:54;11.70;;;5.78;;
54502;SDS011;40411;50.090;21.954;2024-02-14T00:53:20;18.55;;;6.63;;
54502;SDS011;40411;50.090;21.954;2024-02-14T00:55:46;13.55;;;6.95;;
54502;SDS011;40411;50.090;21.954;2024-02-14T00:58:12;15.57;;;7.00;;
54502;SDS011;40411;50.090;21.954;2024-02-14T01:00:38;15.45;;;6.55;;
54502;SDS011;40411;50.090;21.954;2024-02-14T01:03:06;14.25;;;6.38;;
54502;SDS011;40411;50.090;21.954;2024-02-14T01:05:32;13.60;;;6.22;;
54502;SDS011;40411;50.090;21.954;2024-02-14T01:07:58;17.60;;;6.57;;
54502;SDS011;40411;50.090;21.954;2024-02-14T01:10:24;16.05;;;5.75;;
54502;SDS011;40411;50.090;21.954;2024-02-14T01:12:50;15.23;;;6.82;;
54502;SDS011;40411;50.090;21.954;2024-02-14T01:15:16;21.70;;;8.23;;
54502;SDS011;40411;50.090;21.954;2024-02-14T01:17:42;14.00;;;6.47;;
54502;SDS011;40411;50.090;21.954;2024-02-14T01:20:08;17.13;;;7.03;;
54502;SDS011;40411;50.090;21.954;2024-02-14T01:22:34;14.95;;;5.93;;
54502;SDS011;40411;50.090;21.954;2024-02-14T01:25:01;13.73;;;5.65;;
54502;SDS011;40411;50.090;21.954;2024-02-14T01:27:28;12.30;;;6.13;;
54502;SDS011;40411;50.090;21.954;2024-02-14T01:29:54;12.43;;;6.45;;
54502;SDS011;40411;50.090;21.954;2024-02-14T01:32:20;12.65;;;5.63;;
54502;SDS011;40411;50.090;21.954;2024-02-14T01:34:46;15.35;;;6.65;;
54502;SDS011;40411;50.090;21.954;2024-02-14T01:37:12;12.98;;;5.38;;
54502;SDS011;40411;50.090;21.954;2024-02-14T01:39:38;11.02;;;4.55;;
54502;SDS011;40411;50.090;21.954;2024-02-14T01:42:04;10.70;;;4.93;;
54502;SDS011;40411;50.090;21.954;2024-02-14T01:44:32;14.30;;;5.38;;
54502;SDS011;40411;50.090;21.954;2024-02-14T01:46:59;10.98;;;4.00;;
54502;SDS011;40411;50.090;21.954;2024-02-14T01:49:26;11.40;;;4.72;;
54502;SDS011;40411;50.090;21.954;2024-02-14T01:51:55;9.30;;;4.03;;
54502;SDS011;40411;50.090;21.954;2024-02-14T01:54:24;9.63;;;4.57;;
54502;SDS011;40411;50.090;21.954;2024-02-14T01:56:52;12.77;;;4.45;;
54502;SDS011;40411;50.090;21.954;2024-02-14T01:59:20;14.48;;;5.10;;
54502;SDS011;40411;50.090;21.954;2024-02-14T02:01:46;10.23;;;4.63;;
54502;SDS011;40411;50.090;21.954;2024-02-14T02:04:12;14.30;;;5.00;;
54502;SDS011;40411;50.090;21.954;2024-02-14T02:06:39;11.23;;;4.53;;
54502;SDS011;40411;50.090;21.954;2024-02-14T02:09:06;9.77;;;4.78;;
54502;SDS011;40411;50.090;21.954;2024-02-14T02:11:54;11.25;;;4.20;;
54502;SDS011;40411;50.090;21.954;2024-02-14T02:14:19;16.30;;;5.13;;
54502;SDS011;40411;50.090;21.954;2024-02-14T02:16:47;10.75;;;4.32;;
54502;SDS011;40411;50.090;21.954;2024-02-14T02:19:13;9.98;;;3.72;;
54502;SDS011;40411;50.090;21.954;2024-02-14T02:21:41;7.38;;;3.65;;
54502;SDS011;40411;50.090;21.954;2024-02-14T02:24:11;10.73;;;4.80;;
54502;SDS011;40411;50.090;21.954;2024-02-14T02:26:37;9.10;;;4.20;;
54502;SDS011;40411;50.090;21.954;2024-02-14T02:29:03;9.52;;;3.88;;
54502;SDS011;40411;50.090;21.954;2024-02-14T02:31:30;9.57;;;4.13;;
54502;SDS011;40411;50.090;21.954;2024-02-14T02:33:56;7.47;;;3.25;;
54502;SDS011;40411;50.090;21.954;2024-02-14T02:36:23;7.47;;;3.00;;
54502;SDS011;40411;50.090;21.954;2024-02-14T02:38:51;8.25;;;3.63;;
54502;SDS011;40411;50.090;21.954;2024-02-14T02:41:17;11.50;;;3.50;;
54502;SDS011;40411;50.090;21.954;2024-02-14T02:43:43;8.85;;;3.97;;
54502;SDS011;40411;50.090;21.954;2024-02-14T02:46:09;9.48;;;3.45;;
54502;SDS011;40411;50.090;21.954;2024-02-14T02:48:35;11.38;;;3.47;;
54502;SDS011;40411;50.090;21.954;2024-02-14T02:51:01;7.55;;;3.90;;
54502;SDS011;40411;50.090;21.954;2024-02-14T02:53:27;14.75;;;3.55;;
54502;SDS011;40411;50.090;21.954;2024-02-14T02:55:53;8.35;;;3.22;;
54502;SDS011;40411;50.090;21.954;2024-02-14T02:58:20;7.68;;;3.50;;
54502;SDS011;40411;50.090;21.954;2024-02-14T03:00:46;7.90;;;3.75;;
54502;SDS011;40411;50.090;21.954;2024-02-14T03:03:14;16.20;;;4.05;;
54502;SDS011;40411;50.090;21.954;2024-02-14T03:05:42;13.18;;;3.80;;
54502;SDS011;40411;50.090;21.954;2024-02-14T03:08:10;8.70;;;3.58;;
54502;SDS011;40411;50.090;21.954;2024-02-14T03:10:41;9.95;;;3.38;;
54502;SDS011;40411;50.090;21.954;2024-02-14T03:13:07;8.90;;;3.55;;
54502;SDS011;40411;50.090;21.954;2024-02-14T03:15:37;12.80;;;3.70;;
54502;SDS011;40411;50.090;21.954;2024-02-14T03:18:03;18.42;;;4.68;;
54502;SDS011;40411;50.090;21.954;2024-02-14T03:20:35;11.50;;;3.95;;
54502;SDS011;40411;50.090;21.954;2024-02-14T03:23:02;7.65;;;3.90;;
54502;SDS011;40411;50.090;21.954;2024-02-14T03:25:29;10.38;;;4.32;;
54502;SDS011;40411;50.090;21.954;2024-02-14T03:27:55;8.95;;;4.03;;
54502;SDS011;40411;50.090;21.954;2024-02-14T03:30:22;10.02;;;4.70;;
54502;SDS011;40411;50.090;21.954;2024-02-14T03:32:48;10.68;;;4.15;;
54502;SDS011;40411;50.090;21.954;2024-02-14T03:35:15;8.20;;;3.78;;
54502;SDS011;40411;50.090;21.954;2024-02-14T03:37:41;9.80;;;4.32;;
54502;SDS011;40411;50.090;21.954;2024-02-14T03:40:09;12.52;;;4.30;;
54502;SDS011;40411;50.090;21.954;2024-02-14T03:42:35;11.27;;;4.90;;
54502;SDS011;40411;50.090;21.954;2024-02-14T03:45:01;9.25;;;4.43;;
54502;SDS011;40411;50.090;21.954;2024-02-14T03:47:31;12.30;;;4.03;;
54502;SDS011;40411;50.090;21.954;2024-02-14T03:50:01;12.98;;;4.25;;
54502;SDS011;40411;50.090;21.954;2024-02-14T03:52:30;11.98;;;4.88;;
54502;SDS011;40411;50.090;21.954;2024-02-14T03:54:58;7.45;;;4.10;;
54502;SDS011;40411;50.090;21.954;2024-02-14T03:57:25;8.57;;;3.92;;
54502;SDS011;40411;50.090;21.954;2024-02-14T03:59:58;8.80;;;3.97;;
54502;SDS011;40411;50.090;21.954;2024-02-14T04:02:43;8.48;;;3.80;;
54502;SDS011;40411;50.090;21.954;2024-02-14T04:05:09;9.07;;;4.45;;
54502;SDS011;40411;50.090;21.954;2024-02-14T04:07:35;12.32;;;4.35;;
54502;SDS011;40411;50.090;21.954;2024-02-14T04:10:02;10.82;;;5.03;;
54502;SDS011;40411;50.090;21.954;2024-02-14T04:12:28;23.42;;;4.30;;
54502;SDS011;40411;50.090;21.954;2024-02-14T04:14:54;8.77;;;4.43;;
54502;SDS011;40411;50.090;21.954;2024-02-14T04:17:20;14.48;;;4.00;;
54502;SDS011;40411;50.090;21.954;2024-02-14T04:19:46;11.75;;;3.83;;
54502;SDS011;40411;50.090;21.954;2024-02-14T04:22:12;12.05;;;4.85;;
54502;SDS011;40411;50.090;21.954;2024-02-14T04:24:39;18.10;;;4.75;;
54502;SDS011;40411;50.090;21.954;2024-02-14T04:27:04;11.15;;;4.63;;
54502;SDS011;40411;50.090;21.954;2024-02-14T04:29:31;7.15;;;3.55;;
54502;SDS011;40411;50.090;21.954;2024-02-14T04:31:59;10.90;;;4.15;;
54502;SDS011;40411;50.090;21.954;2024-02-14T04:34:25;8.93;;;4.30;;
54502;SDS011;40411;50.090;21.954;2024-02-14T04:36:52;12.55;;;4.53;;
54502;SDS011;40411;50.090;21.954;2024-02-14T04:39:18;10.52;;;3.95;;
54502;SDS011;40411;50.090;21.954;2024-02-14T04:41:44;11.93;;;5.10;;
54502;SDS011;40411;50.090;21.954;2024-02-14T04:44:10;9.18;;;4.20;;
54502;SDS011;40411;50.090;21.954;2024-02-14T04:46:36;11.18;;;4.30;;
54502;SDS011;40411;50.090;21.954;2024-02-14T04:49:03;12.80;;;4.50;;
54502;SDS011;40411;50.090;21.954;2024-02-14T04:51:29;10.90;;;5.38;;
54502;SDS011;40411;50.090;21.954;2024-02-14T04:53:57;11.60;;;3.92;;
54502;SDS011;40411;50.090;21.954;2024-02-14T04:56:26;9.15;;;3.85;;
54502;SDS011;40411;50.090;21.954;2024-02-14T04:58:53;9.80;;;5.05;;
54502;SDS011;40411;50.090;21.954;2024-02-14T05:01:20;15.90;;;4.57;;
54502;SDS011;40411;50.090;21.954;2024-02-14T05:03:46;8.10;;;3.97;;
54502;SDS011;40411;50.090;21.954;2024-02-14T05:06:12;10.65;;;4.40;;
54502;SDS011;40411;50.090;21.954;2024-02-14T05:08:38;16.77;;;4.00;;
54502;SDS011;40411;50.090;21.954;2024-02-14T05:11:04;8.98;;;3.83;;
54502;SDS011;40411;50.090;21.954;2024-02-14T05:13:30;10.52;;;3.72;;
54502;SDS011;40411;50.090;21.954;2024-02-14T05:15:56;15.95;;;4.53;;
54502;SDS011;40411;50.090;21.954;2024-02-14T05:18:22;9.32;;;3.90;;
54502;SDS011;40411;50.090;21.954;2024-02-14T05:20:48;11.25;;;4.47;;
54502;SDS011;40411;50.090;21.954;2024-02-14T05:23:15;8.70;;;4.20;;
54502;SDS011;40411;50.090;21.954;2024-02-14T05:25:43;10.75;;;4.70;;
54502;SDS011;40411;50.090;21.954;2024-02-14T05:28:09;8.65;;;3.97;;
54502;SDS011;40411;50.090;21.954;2024-02-14T05:30:39;12.23;;;4.07;;
54502;SDS011;40411;50.090;21.954;2024-02-14T05:33:06;6.90;;;3.42;;
54502;SDS011;40411;50.090;21.954;2024-02-14T05:35:32;8.45;;;3.72;;
54502;SDS011;40411;50.090;21.954;2024-02-14T05:37:58;8.50;;;3.63;;
54502;SDS011;40411;50.090;21.954;2024-02-14T05:40:23;11.68;;;4.38;;
54502;SDS011;40411;50.090;21.954;2024-02-14T05:42:50;11.75;;;4.95;;
54502;SDS011;40411;50.090;21.954;2024-02-14T05:45:15;9.25;;;4.50;;
54502;SDS011;40411;50.090;21.954;2024-02-14T05:47:42;12.05;;;5.70;;
54502;SDS011;40411;50.090;21.954;2024-02-14T05:50:08;23.75;;;9.15;;
54502;SDS011;40411;50.090;21.954;2024-02-14T05:52:37;25.50;;;8.68;;
54502;SDS011;40411;50.090;21.954;2024-02-14T05:55:03;28.83;;;10.93;;
54502;SDS011;40411;50.090;21.954;2024-02-14T05:57:30;22.60;;;10.10;;
54502;SDS011;40411;50.090;21.954;2024-02-14T05:59:56;24.85;;;10.45;;
54502;SDS011;40411;50.090;21.954;2024-02-14T06:02:22;18.63;;;5.85;;
54502;SDS011;40411;50.090;21.954;2024-02-14T06:04:48;9.50;;;4.90;;
54502;SDS011;40411;50.090;21.954;2024-02-14T06:07:14;11.77;;;4.78;;
54502;SDS011;40411;50.090;21.954;2024-02-14T06:09:40;32.88;;;11.68;;
54502;SDS011;40411;50.090;21.954;2024-02-14T06:12:06;22.48;;;8.40;;
54502;SDS011;40411;50.090;21.954;2024-02-14T06:14:32;25.00;;;7.32;;
54502;SDS011;40411;50.090;21.954;2024-02-14T06:16:59;13.52;;;5.50;;
54502;SDS011;40411;50.090;21.954;2024-02-14T06:19:26;13.48;;;5.65;;
54502;SDS011;40411;50.090;21.954;2024-02-14T06:21:53;17.73;;;5.63;;
54502;SDS011;40411;50.090;21.954;2024-02-14T06:24:19;12.82;;;5.30;;
54502;SDS011;40411;50.090;21.954;2024-02-14T06:26:45;15.32;;;5.95;;
54502;SDS011;40411;50.090;21.954;2024-02-14T06:29:11;13.13;;;5.53;;
54502;SDS011;40411;50.090;21.954;2024-02-14T06:31:37;14.82;;;6.18;;
54502;SDS011;40411;50.090;21.954;2024-02-14T06:34:03;10.88;;;6.28;;
54502;SDS011;40411;50.090;21.954;2024-02-14T06:36:30;16.90;;;7.40;;
54502;SDS011;40411;50.090;21.954;2024-02-14T06:38:56;21.95;;;9.35;;
54502;SDS011;40411;50.090;21.954;2024-02-14T06:41:22;18.80;;;6.18;;
54502;SDS011;40411;50.090;21.954;2024-02-14T06:43:48;12.55;;;5.47;;
54502;SDS011;40411;50.090;21.954;2024-02-14T06:46:14;11.27;;;5.60;;
54502;SDS011;40411;50.090;21.954;2024-02-14T06:48:40;15.18;;;5.53;;
54502;SDS011;40411;50.090;21.954;2024-02-14T06:51:06;14.90;;;5.65;;
54502;SDS011;40411;50.090;21.954;2024-02-14T06:53:32;11.43;;;4.93;;
54502;SDS011;40411;50.090;21.954;2024-02-14T06:55:58;12.07;;;5.72;;
54502;SDS011;40411;50.090;21.954;2024-02-14T06:58:24;14.30;;;5.72;;
54502;SDS011;40411;50.090;21.954;2024-02-14T07:00:50;14.50;;;5.22;;
54502;SDS011;40411;50.090;21.954;2024-02-14T07:03:16;18.15;;;5.93;;
54502;SDS011;40411;50.090;21.954;2024-02-14T07:05:42;11.68;;;5.65;;
54502;SDS011;40411;50.090;21.954;2024-02-14T07:08:08;12.25;;;6.88;;
54502;SDS011;40411;50.090;21.954;2024-02-14T07:10:34;13.38;;;5.18;;
54502;SDS011;40411;50.090;21.954;2024-02-14T07:13:00;15.02;;;5.57;;
54502;SDS011;40411;50.090;21.954;2024-02-14T07:15:26;10.43;;;4.90;;
54502;SDS011;40411;50.090;21.954;2024-02-14T07:17:56;21.85;;;5.50;;
54502;SDS011;40411;50.090;21.954;2024-02-14T07:20:24;13.20;;;5.78;;
54502;SDS011;40411;50.090;21.954;2024-02-14T07:22:53;11.85;;;5.53;;
54502;SDS011;40411;50.090;21.954;2024-02-14T07:25:19;11.88;;;5.90;;
54502;SDS011;40411;50.090;21.954;2024-02-14T07:27:45;16.90;;;6.50;;
54502;SDS011;40411;50.090;21.954;2024-02-14T07:30:13;14.70;;;5.28;;
54502;SDS011;40411;50.090;21.954;2024-02-14T07:32:39;15.75;;;4.90;;
54502;SDS011;40411;50.090;21.954;2024-02-14T07:35:05;11.38;;;5.57;;
54502;SDS011;40411;50.090;21.954;2024-02-14T07:37:32;17.63;;;5.20;;
54502;SDS011;40411;50.090;21.954;2024-02-14T07:39:58;12.63;;;5.03;;
54502;SDS011;40411;50.090;21.954;2024-02-14T07:42:24;17.42;;;5.90;;
54502;SDS011;40411;50.090;21.954;2024-02-14T07:44:50;19.27;;;8.50;;
54502;SDS011;40411;50.090;21.954;2024-02-14T07:47:15;12.52;;;6.18;;
54502;SDS011;40411;50.090;21.954;2024-02-14T07:49:41;11.35;;;5.30;;
54502;SDS011;40411;50.090;21.954;2024-02-14T07:52:07;13.07;;;4.97;;
54502;SDS011;40411;50.090;21.954;2024-02-14T07:54:33;11.60;;;5.72;;
54502;SDS011;40411;50.090;21.954;2024-02-14T07:56:59;10.13;;;4.75;;
54502;SDS011;40411;50.090;21.954;2024-02-14T07:59:25;13.32;;;6.18;;
54502;SDS011;40411;50.090;21.954;2024-02-14T08:01:52;15.43;;;5.78;;
54502;SDS011;40411;50.090;21.954;2024-02-14T08:04:18;13.15;;;6.13;;
54502;SDS011;40411;50.090;21.954;2024-02-14T08:06:47;18.92;;;6.70;;
54502;SDS011;40411;50.090;21.954;2024-02-14T08:09:15;19.63;;;7.18;;
54502;SDS011;40411;50.090;21.954;2024-02-14T08:11:40;14.85;;;6.40;;
54502;SDS011;40411;50.090;21.954;2024-02-14T08:14:07;17.80;;;7.18;;
54502;SDS011;40411;50.090;21.954;2024-02-14T08:16:33;10.68;;;5.63;;
54502;SDS011;40411;50.090;21.954;2024-02-14T08:18:59;12.23;;;6.95;;
54502;SDS011;40411;50.090;21.954;2024-02-14T08:21:25;13.48;;;6.22;;
54502;SDS011;40411;50.090;21.954;2024-02-14T08:23:52;12.82;;;5.30;;
54502;SDS011;40411;50.090;21.954;2024-02-14T08:26:19;18.67;;;6.25;;
54502;SDS011;40411;50.090;21.954;2024-02-14T08:28:45;11.40;;;5.35;;
54502;SDS011;40411;50.090;21.954;2024-02-14T08:31:12;13.68;;;5.07;;
54502;SDS011;40411;50.090;21.954;2024-02-14T08:33:38;11.75;;;5.30;;
54502;SDS011;40411;50.090;21.954;2024-02-14T08:36:05;11.80;;;4.53;;
54502;SDS011;40411;50.090;21.954;2024-02-14T08:38:32;10.10;;;5.25;;
54502;SDS011;40411;50.090;21.954;2024-02-14T08:41:00;11.68;;;4.95;;
54502;SDS011;40411;50.090;21.954;2024-02-14T08:43:30;11.43;;;4.85;;
54502;SDS011;40411;50.090;21.954;2024-02-14T08:45:56;13.50;;;5.13;;
54502;SDS011;40411;50.090;21.954;2024-02-14T08:48:23;12.00;;;4.28;;
54502;SDS011;40411;50.090;21.954;2024-02-14T08:50:49;9.07;;;4.82;;
54502;SDS011;40411;50.090;21.954;2024-02-14T08:53:15;13.70;;;5.18;;
54502;SDS011;40411;50.090;21.954;2024-02-14T08:55:41;8.57;;;4.05;;
54502;SDS011;40411;50.090;21.954;2024-02-14T08:58:08;14.48;;;4.10;;
54502;SDS011;40411;50.090;21.954;2024-02-14T09:00:37;9.30;;;3.75;;
54502;SDS011;40411;50.090;21.954;2024-02-14T09:03:04;8.90;;;4.35;;
54502;SDS011;40411;50.090;21.954;2024-02-14T09:05:31;12.52;;;3.83;;
54502;SDS011;40411;50.090;21.954;2024-02-14T09:07:57;9.68;;;4.03;;
54502;SDS011;40411;50.090;21.954;2024-02-14T09:10:23;9.40;;;3.85;;
54502;SDS011;40411;50.090;21.954;2024-02-14T09:12:49;8.55;;;3.60;;
54502;SDS011;40411;50.090;21.954;2024-02-14T09:15:15;10.82;;;3.75;;
54502;SDS011;40411;50.090;21.954;2024-02-14T09:17:41;8.77;;;4.18;;
54502;SDS011;40411;50.090;21.954;2024-02-14T09:20:08;10.90;;;4.97;;
54502;SDS011;40411;50.090;21.954;2024-02-14T09:22:35;9.55;;;3.75;;
54502;SDS011;40411;50.090;21.954;2024-02-14T09:25:01;14.55;;;3.53;;
54502;SDS011;40411;50.090;21.954;2024-02-14T09:27:31;7.22;;;3.50;;
54502;SDS011;40411;50.090;21.954;2024-02-14T09:29:58;8.45;;;4.07;;
54502;SDS011;40411;50.090;21.954;2024-02-14T09:32:24;13.05;;;3.70;;
54502;SDS011;40411;50.090;21.954;2024-02-14T09:34:50;6.50;;;3.45;;
54502;SDS011;40411;50.090;21.954;2024-02-14T09:37:16;10.65;;;3.53;;
54502;SDS011;40411;50.090;21.954;2024-02-14T09:39:42;9.13;;;3.20;;
54502;SDS011;40411;50.090;21.954;2024-02-14T09:42:11;10.00;;;3.03;;
54502;SDS011;40411;50.090;21.954;2024-02-14T09:44:39;8.75;;;3.47;;
54502;SDS011;40411;50.090;21.954;2024-02-14T09:47:07;7.65;;;2.75;;
54502;SDS011;40411;50.090;21.954;2024-02-14T09:49:34;7.18;;;3.53;;
54502;SDS011;40411;50.090;21.954;2024-02-14T09:52:04;7.10;;;3.40;;
54502;SDS011;40411;50.090;21.954;2024-02-14T09:54:31;8.00;;;3.22;;
54502;SDS011;40411;50.090;21.954;2024-02-14T09:57:00;8.95;;;2.85;;
54502;SDS011;40411;50.090;21.954;2024-02-14T09:59:27;6.57;;;2.65;;
54502;SDS011;40411;50.090;21.954;2024-02-14T10:01:55;6.28;;;2.33;;
54502;SDS011;40411;50.090;21.954;2024-02-14T10:04:20;4.60;;;1.98;;
54502;SDS011;40411;50.090;21.954;2024-02-14T10:06:48;7.95;;;1.75;;
54502;SDS011;40411;50.090;21.954;2024-02-14T10:09:19;4.60;;;1.40;;
54502;SDS011;40411;50.090;21.954;2024-02-14T10:11:46;2.40;;;0.98;;
54502;SDS011;40411;50.090;21.954;2024-02-14T10:14:12;4.68;;;1.52;;
54502;SDS011;40411;50.090;21.954;2024-02-14T10:16:38;4.57;;;1.30;;
54502;SDS011;40411;50.090;21.954;2024-02-14T10:19:04;2.78;;;1.10;;
54502;SDS011;40411;50.090;21.954;2024-02-14T10:21:33;4.00;;;1.10;;
54502;SDS011;40411;50.090;21.954;2024-02-14T10:23:59;5.90;;;1.67;;
54502;SDS011;40411;50.090;21.954;2024-02-14T10:26:26;3.83;;;1.50;;
54502;SDS011;40411;50.090;21.954;2024-02-14T10:28:51;5.22;;;1.65;;
54502;SDS011;40411;50.090;21.954;2024-02-14T10:31:17;4.13;;;1.05;;
54502;SDS011;40411;50.090;21.954;2024-02-14T10:33:43;3.25;;;1.00;;
54502;SDS011;40411;50.090;21.954;2024-02-14T10:36:10;2.65;;;1.10;;
54502;SDS011;40411;50.090;21.954;2024-02-14T10:38:37;2.25;;;0.68;;
54502;SDS011;40411;50.090;21.954;2024-02-14T10:41:05;4.22;;;1.13;;
54502;SDS011;40411;50.090;21.954;2024-02-14T10:43:31;3.78;;;1.45;;
54502;SDS011;40411;50.090;21.954;2024-02-14T10:46:00;3.92;;;1.23;;
54502;SDS011;40411;50.090;21.954;2024-02-14T10:48:33;2.92;;;0.98;;
54502;SDS011;40411;50.090;21.954;2024-02-14T10:51:02;3.28;;;1.30;;
54502;SDS011;40411;50.090;21.954;2024-02-14T10:53:31;4.30;;;1.50;;
54502;SDS011;40411;50.090;21.954;2024-02-14T10:56:00;3.00;;;1.00;;
54502;SDS011;40411;50.090;21.954;2024-02-14T10:58:27;3.35;;;0.80;;
54502;SDS011;40411;50.090;21.954;2024-02-14T11:00:55;3.38;;;1.08;;
54502;SDS011;40411;50.090;21.954;2024-02-14T11:03:22;4.35;;;1.30;;
54502;SDS011;40411;50.090;21.954;2024-02-14T11:05:49;4.50;;;1.10;;
54502;SDS011;40411;50.090;21.954;2024-02-14T11:08:18;5.00;;;1.30;;
54502;SDS011;40411;50.090;21.954;2024-02-14T11:10:56;5.38;;;1.38;;
54502;SDS011;40411;50.090;21.954;2024-02-14T11:13:30;7.00;;;1.77;;
54502;SDS011;40411;50.090;21.954;2024-02-14T11:16:02;6.45;;;1.50;;
54502;SDS011;40411;50.090;21.954;2024-02-14T11:18:30;3.38;;;1.33;;
54502;SDS011;40411;50.090;21.954;2024-02-14T11:20:56;4.35;;;1.40;;
54502;SDS011;40411;50.090;21.954;2024-02-14T11:23:25;6.57;;;1.65;;
54502;SDS011;40411;50.090;21.954;2024-02-14T11:26:01;2.65;;;1.15;;
54502;SDS011;40411;50.090;21.954;2024-02-14T11:28:28;4.75;;;1.55;;
54502;SDS011;40411;50.090;21.954;2024-02-14T11:30:58;6.53;;;1.63;;
54502;SDS011;40411;50.090;21.954;2024-02-14T11:33:26;6.65;;;1.40;;
54502;SDS011;40411;50.090;21.954;2024-02-14T11:35:53;3.13;;;1.10;;
54502;SDS011;40411;50.090;21.954;2024-02-14T11:38:21;4.50;;;1.35;;
54502;SDS011;40411;50.090;21.954;2024-02-14T11:40:53;6.75;;;2.05;;
54502;SDS011;40411;50.090;21.954;2024-02-14T11:43:20;2.80;;;1.02;;
54502;SDS011;40411;50.090;21.954;2024-02-14T11:45:46;4.22;;;1.58;;
54502;SDS011;40411;50.090;21.954;2024-02-14T11:48:15;4.03;;;1.48;;
54502;SDS011;40411;50.090;21.954;2024-02-14T11:50:42;4.40;;;1.52;;
54502;SDS011;40411;50.090;21.954;2024-02-14T11:53:12;4.03;;;1.30;;
54502;SDS011;40411;50.090;21.954;2024-02-14T11:55:39;7.30;;;1.70;;
54502;SDS011;40411;50.090;21.954;2024-02-14T11:58:10;5.20;;;1.40;;
54502;SDS011;40411;50.090;21.954;2024-02-14T12:00:37;5.68;;;1.45;;
54502;SDS011;40411;50.090;21.954;2024-02-14T12:03:12;5.63;;;1.67;;
54502;SDS011;40411;50.090;21.954;2024-02-14T12:05:46;3.95;;;1.35;;
54502;SDS011;40411;50.090;21.954;2024-02-14T12:08:16;5.43;;;1.42;;
54502;SDS011;40411;50.090;21.954;2024-02-14T12:10:43;4.70;;;1.50;;
54502;SDS011;40411;50.090;21.954;2024-02-14T12:13:15;6.88;;;1.42;;
54502;SDS011;40411;50.090;21.954;2024-02-14T12:15:46;4.72;;;1.42;;
54502;SDS011;40411;50.090;21.954;2024-02-14T12:18:13;3.78;;;1.55;;
54502;SDS011;40411;50.090;21.954;2024-02-14T12:20:40;5.03;;;1.60;;
54502;SDS011;40411;50.090;21.954;2024-02-14T12:23:07;2.70;;;1.23;;
54502;SDS011;40411;50.090;21.954;2024-02-14T12:25:33;4.40;;;1.60;;
54502;SDS011;40411;50.090;21.954;2024-02-14T12:27:59;5.00;;;1.30;;
54502;SDS011;40411;50.090;21.954;2024-02-14T12:30:42;4.90;;;1.45;;
54502;SDS011;40411;50.090;21.954;2024-02-14T12:33:15;4.10;;;1.33;;
54502;SDS011;40411;50.090;21.954;2024-02-14T12:35:42;3.75;;;1.42;;
54502;SDS011;40411;50.090;21.954;2024-02-14T12:38:10;3.83;;;1.40;;
54502;SDS011;40411;50.090;21.954;2024-02-14T12:40:37;3.22;;;1.08;;
54502;SDS011;40411;50.090;21.954;2024-02-14T12:43:07;3.53;;;1.30;;
54502;SDS011;40411;50.090;21.954;2024-02-14T12:45:34;5.28;;;1.40;;
54502;SDS011;40411;50.090;21.954;2024-02-14T12:48:01;3.50;;;1.20;;
54502;SDS011;40411;50.090;21.954;2024-02-14T12:50:27;3.70;;;1.17;;
54502;SDS011;40411;50.090;21.954;2024-02-14T12:52:53;5.32;;;1.65;;
54502;SDS011;40411;50.090;21.954;2024-02-14T12:55:18;2.78;;;1.13;;
54502;SDS011;40411;50.090;21.954;2024-02-14T12:57:45;7.07;;;2.50;;
54502;SDS011;40411;50.090;21.954;2024-02-14T13:00:11;4.88;;;1.70;;
54502;SDS011;40411;50.090;21.954;2024-02-14T13:02:38;5.65;;;1.70;;
54502;SDS011;40411;50.090;21.954;2024-02-14T13:05:04;4.95;;;1.20;;
54502;SDS011;40411;50.090;21.954;2024-02-14T13:07:31;4.38;;;1.50;;
54502;SDS011;40411;50.090;21.954;2024-02-14T13:09:57;4.72;;;1.50;;
54502;SDS011;40411;50.090;21.954;2024-02-14T13:12:23;4.72;;;1.30;;
54502;SDS011;40411;50.090;21.954;2024-02-14T13:14:48;2.45;;;1.08;;
54502;SDS011;40411;50.090;21.954;2024-02-14T13:17:14;4.07;;;1.50;;
54502;SDS011;40411;50.090;21.954;2024-02-14T13:19:40;5.82;;;1.50;;
54502;SDS011;40411;50.090;21.954;2024-02-14T13:22:08;4.47;;;1.55;;
54502;SDS011;40411;50.090;21.954;2024-02-14T13:24:34;4.80;;;1.67;;
54502;SDS011;40411;50.090;21.954;2024-02-14T13:27:01;3.60;;;1.48;;
54502;SDS011;40411;50.090;21.954;2024-02-14T13:29:27;3.25;;;1.40;;
54502;SDS011;40411;50.090;21.954;2024-02-14T13:31:54;7.35;;;1.40;;
54502;SDS011;40411;50.090;21.954;2024-02-14T13:34:19;3.25;;;1.23;;
54502;SDS011;40411;50.090;21.954;2024-02-14T13:36:46;2.55;;;1.10;;
54502;SDS011;40411;50.090;21.954;2024-02-14T13:39:12;4.68;;;1.52;;
54502;SDS011;40411;50.090;21.954;2024-02-14T13:41:39;3.65;;;1.30;;
54502;SDS011;40411;50.090;21.954;2024-02-14T13:44:09;2.40;;;1.15;;
54502;SDS011;40411;50.090;21.954;2024-02-14T13:46:35;4.47;;;1.25;;
54502;SDS011;40411;50.090;21.954;2024-02-14T13:49:02;2.97;;;1.48;;
54502;SDS011;40411;50.090;21.954;2024-02-14T13:51:28;4.80;;;1.50;;
54502;SDS011;40411;50.090;21.954;2024-02-14T13:53:54;4.07;;;1.48;;
54502;SDS011;40411;50.090;21.954;2024-02-14T13:56:21;6.25;;;1.70;;
54502;SDS011;40411;50.090;21.954;2024-02-14T13:58:48;4.88;;;1.77;;
54502;SDS011;40411;50.090;21.954;2024-02-14T14:01:17;5.22;;;1.98;;
54502;SDS011;40411;50.090;21.954;2024-02-14T14:03:43;3.85;;;1.45;;
54502;SDS011;40411;50.090;21.954;2024-02-14T14:06:09;3.97;;;1.40;;
54502;SDS011;40411;50.090;21.954;2024-02-14T14:08:35;4.47;;;1.40;;
54502;SDS011;40411;50.090;21.954;2024-02-14T14:11:04;4.22;;;1.80;;
54502;SDS011;40411;50.090;21.954;2024-02-14T14:13:30;4.50;;;1.58;;
54502;SDS011;40411;50.090;21.954;2024-02-14T14:15:59;3.92;;;1.45;;
54502;SDS011;40411;50.090;21.954;2024-02-14T14:18:25;4.20;;;1.52;;
54502;SDS011;40411;50.090;21.954;2024-02-14T14:20:51;4.20;;;1.15;;
54502;SDS011;40411;50.090;21.954;2024-02-14T14:23:20;4.13;;;1.33;;
54502;SDS011;40411;50.090;21.954;2024-02-14T14:25:46;3.42;;;1.48;;
54502;SDS011;40411;50.090;21.954;2024-02-14T14:28:12;3.90;;;1.40;;